Time;durP1;ratioP1;P1;durP2;ratioP2;P2;SDS_P1;SDS_P2;PMS_P1;PMS_P2;Temp;Humidity;BMP_temperature;BMP_pressure;BME280_temperature;BME280_humidity;BME280_pressure;Samples;Min_cycle;Max_cycle;Signal;HPM_P1;HPM_P2
2023/08/26 00:00:29;;;;;;;4.13;2.65;;;19.80;99.90;;;;;;4947849;28;20047;-91
2023/08/26 00:02:56;;;;;;;8.93;3.15;;;19.70;99.90;;;;;;4949787;29;20051;-86
2023/08/26 00:05:22;;;;;;;10.05;2.90;;;19.70;99.90;;;;;;4950470;28;20038;-89
2023/08/26 00:07:47;;;;;;;9.77;2.90;;;19.70;99.90;;;;;;4948021;28;20027;-93
2023/08/26 00:10:13;;;;;;;5.45;2.75;;;19.80;99.90;;;;;;4937386;29;20481;-86
2023/08/26 00:12:38;;;;;;;6.85;3.15;;;19.70;99.90;;;;;;4955329;28;20473;-88
2023/08/26 00:15:05;;;;;;;7.80;3.65;;;19.70;99.90;;;;;;4950532;28;20028;-86
2023/08/26 00:17:32;;;;;;;6.13;3.28;;;19.70;99.90;;;;;;4942843;29;20031;-87
2023/08/26 00:19:58;;;;;;;7.40;3.45;;;19.80;99.90;;;;;;4951480;28;20078;-86
2023/08/26 00:22:24;;;;;;;6.32;3.20;;;19.70;99.90;;;;;;4944344;28;20040;-87
2023/08/26 00:24:50;;;;;;;6.40;3.47;;;19.70;99.90;;;;;;4948879;29;20039;-89
2023/08/26 00:27:16;;;;;;;4.60;3.50;;;19.80;99.90;;;;;;4951314;28;20028;-86
2023/08/26 00:29:42;;;;;;;5.32;3.55;;;19.70;99.90;;;;;;4950584;28;20082;-86
2023/08/26 00:32:07;;;;;;;8.55;3.40;;;19.70;99.90;;;;;;4931600;28;20126;-87
2023/08/26 00:34:33;;;;;;;6.20;3.80;;;19.80;99.90;;;;;;4938046;29;20128;-85
2023/08/26 00:36:58;;;;;;;7.95;3.42;;;19.70;99.90;;;;;;4949419;29;20023;-87
2023/08/26 00:39:24;;;;;;;11.57;3.10;;;19.70;99.90;;;;;;4952443;28;20039;-87
2023/08/26 00:41:49;;;;;;;5.90;3.10;;;19.70;99.90;;;;;;4942683;28;20385;-86
2023/08/26 00:44:15;;;;;;;11.82;3.90;;;19.70;99.90;;;;;;4948328;29;20126;-87
2023/08/26 00:46:41;;;;;;;7.85;3.53;;;19.70;99.90;;;;;;4948384;28;20088;-87
2023/08/26 00:49:07;;;;;;;15.95;3.58;;;19.60;99.90;;;;;;4950013;28;20031;-93
2023/08/26 00:51:33;;;;;;;9.40;3.75;;;19.60;99.90;;;;;;4944922;28;20035;-87
2023/08/26 00:53:59;;;;;;;5.55;3.35;;;19.60;99.90;;;;;;4951019;29;20038;-87
2023/08/26 00:56:25;;;;;;;10.05;3.83;;;19.60;99.90;;;;;;4951337;29;20085;-88
2023/08/26 00:58:50;;;;;;;9.00;3.35;;;19.50;99.90;;;;;;4946523;28;20039;-86
2023/08/26 01:01:18;;;;;;;5.90;3.67;;;19.50;99.90;;;;;;4945678;29;20540;-91
2023/08/26 01:03:44;;;;;;;11.82;3.97;;;19.50;99.90;;;;;;4948291;28;20031;-88
2023/08/26 01:06:09;;;;;;;4.93;3.42;;;19.50;99.90;;;;;;4948705;28;20197;-88
2023/08/26 01:08:35;;;;;;;3.25;2.97;;;19.40;99.90;;;;;;4942426;29;20035;-88
2023/08/26 01:11:32;;;;;;;12.70;4.03;;;19.40;99.90;;;;;;4950264;28;20035;-88
2023/08/26 01:14:04;;;;;;;14.65;4.57;;;19.40;99.90;;;;;;4938139;29;20027;-87
2023/08/26 01:16:33;;;;;;;11.02;4.38;;;19.40;99.90;;;;;;4947920;28;20042;-87
2023/08/26 01:19:00;;;;;;;11.40;4.97;;;19.40;99.90;;;;;;4954048;28;20037;-89
2023/08/26 01:21:37;;;;;;;8.23;5.45;;;19.50;99.90;;;;;;4951232;28;20031;-90
2023/08/26 01:24:04;;;;;;;11.65;4.93;;;19.60;99.90;;;;;;4945909;28;20035;-88
2023/08/26 01:26:30;;;;;;;8.80;4.85;;;19.60;99.90;;;;;;4945427;29;20051;-87
2023/08/26 01:28:55;;;;;;;6.97;4.30;;;19.60;99.90;;;;;;4946118;28;20226;-88
2023/08/26 01:31:22;;;;;;;11.32;4.47;;;19.60;99.90;;;;;;4942426;28;20031;-86
2023/08/26 01:33:51;;;;;;;7.70;4.80;;;19.70;99.90;;;;;;4949327;28;20031;-89
2023/08/26 01:36:25;;;;;;;12.45;4.35;;;19.70;99.90;;;;;;4942662;28;20105;-87
2023/08/26 01:38:52;;;;;;;12.02;4.53;;;19.70;99.90;;;;;;4939174;29;20194;-88
2023/08/26 01:41:19;;;;;;;7.28;3.67;;;19.70;99.90;;;;;;4947720;28;20055;-86
2023/08/26 01:43:46;;;;;;;19.10;5.30;;;19.70;99.90;;;;;;4949332;28;20445;-87
2023/08/26 01:46:12;;;;;;;7.00;4.25;;;19.60;99.90;;;;;;4943545;28;20037;-89
2023/08/26 01:48:38;;;;;;;6.07;4.30;;;19.60;99.90;;;;;;4951399;28;20505;-87
2023/08/26 01:51:03;;;;;;;4.25;3.83;;;19.60;99.90;;;;;;4949296;28;20042;-87
2023/08/26 01:53:29;;;;;;;7.50;4.28;;;19.60;99.90;;;;;;4949187;28;20030;-88
2023/08/26 01:55:56;;;;;;;17.70;6.75;;;19.60;99.90;;;;;;4949572;28;20482;-88
2023/08/26 01:58:22;;;;;;;10.68;5.28;;;19.60;99.90;;;;;;4930939;28;20030;-91
2023/08/26 02:00:47;;;;;;;19.70;6.78;;;19.50;99.90;;;;;;4948541;28;20043;-87
2023/08/26 02:03:13;;;;;;;14.90;5.40;;;19.50;99.90;;;;;;4943842;29;20505;-89
2023/08/26 02:05:39;;;;;;;9.32;5.45;;;19.40;99.90;;;;;;4942557;29;20140;-88
2023/08/26 02:08:04;;;;;;;9.50;4.30;;;19.40;99.90;;;;;;4948068;29;20027;-88
2023/08/26 02:10:31;;;;;;;5.15;4.40;;;19.40;99.90;;;;;;4944054;28;20023;-88
2023/08/26 02:12:57;;;;;;;7.07;4.95;;;19.40;99.90;;;;;;4947829;28;20107;-90
2023/08/26 02:15:23;;;;;;;6.43;4.95;;;19.40;99.90;;;;;;4956358;28;20488;-89
2023/08/26 02:17:49;;;;;;;12.50;4.97;;;19.40;99.90;;;;;;4948211;29;20481;-89
2023/08/26 02:20:14;;;;;;;11.13;5.53;;;19.40;99.90;;;;;;4955652;29;20049;-89
2023/08/26 02:22:40;;;;;;;7.05;4.78;;;19.40;99.90;;;;;;4952853;29;20031;-91
2023/08/26 02:25:07;;;;;;;5.55;4.55;;;19.40;99.90;;;;;;4946392;29;20495;-91
2023/08/26 02:27:35;;;;;;;12.75;5.50;;;19.40;99.90;;;;;;4955283;28;20033;-91
2023/08/26 02:30:02;;;;;;;9.55;5.50;;;19.40;99.90;;;;;;4954193;29;20031;-91
2023/08/26 02:32:28;;;;;;;10.20;5.35;;;19.40;99.90;;;;;;4930566;29;20129;-92
2023/08/26 02:34:54;;;;;;;14.05;5.50;;;19.40;99.90;;;;;;4943779;28;20099;-93
2023/08/26 02:37:21;;;;;;;6.47;5.05;;;19.40;99.90;;;;;;4927134;29;20039;-92
2023/08/26 02:39:50;;;;;;;6.93;4.70;;;19.40;99.90;;;;;;4933245;29;20139;-93
2023/08/26 02:42:15;;;;;;;10.50;5.65;;;19.40;99.90;;;;;;4938858;28;20127;-94
2023/08/26 02:44:42;;;;;;;10.68;5.35;;;19.40;99.90;;;;;;4946688;28;20106;-95
2023/08/26 02:47:10;;;;;;;7.85;5.57;;;19.40;99.90;;;;;;4947857;29;20024;-94
2023/08/26 02:49:36;;;;;;;6.65;5.47;;;19.30;99.90;;;;;;4938385;29;20252;-94
2023/08/26 02:52:05;;;;;;;14.27;6.93;;;19.30;99.90;;;;;;4941178;29;20114;-95
2023/08/26 02:54:32;;;;;;;10.60;7.00;;;19.40;99.90;;;;;;4939972;29;20027;-95
2023/08/26 02:57:00;;;;;;;11.85;5.60;;;19.30;99.90;;;;;;4954401;29;20039;-94
2023/08/26 02:59:28;;;;;;;6.75;5.50;;;19.30;99.90;;;;;;4923919;28;20571;-94
2023/08/26 03:02:03;;;;;;;8.20;5.65;;;19.30;99.90;;;;;;4947277;28;20027;-93
2023/08/26 03:04:30;;;;;;;7.45;5.28;;;19.30;99.90;;;;;;4947355;29;20201;-94
2023/08/26 03:07:01;;;;;;;9.05;6.20;;;19.30;99.90;;;;;;4948500;28;20041;-93
2023/08/26 03:09:28;;;;;;;8.77;5.60;;;19.30;99.90;;;;;;4942173;28;20118;-95
2023/08/26 03:11:55;;;;;;;13.18;7.32;;;19.40;99.90;;;;;;4949516;29;20035;-94
2023/08/26 03:14:21;;;;;;;10.18;6.68;;;19.30;99.90;;;;;;4952220;28;20488;-95
2023/08/26 03:16:47;;;;;;;9.68;6.15;;;19.30;99.90;;;;;;4955166;28;20031;-93
2023/08/26 03:19:12;;;;;;;14.43;6.03;;;19.30;99.90;;;;;;4945247;29;20035;-95
2023/08/26 03:21:38;;;;;;;17.33;6.18;;;19.30;99.90;;;;;;4952153;28;20031;-94
2023/08/26 03:24:05;;;;;;;7.82;5.05;;;19.40;99.90;;;;;;4949847;29;20397;-94
2023/08/26 03:26:34;;;;;;;10.55;5.50;;;19.40;99.90;;;;;;4941540;29;20024;-96
2023/08/26 03:29:00;;;;;;;6.63;4.93;;;19.40;99.90;;;;;;4945694;29;20043;-93
2023/08/26 03:31:25;;;;;;;8.48;5.25;;;19.40;99.90;;;;;;4945291;28;20031;-93
2023/08/26 03:33:51;;;;;;;10.38;5.22;;;19.40;99.90;;;;;;4949898;28;20042;-88
2023/08/26 03:36:16;;;;;;;10.20;5.32;;;19.40;99.90;;;;;;4945239;29;20062;-89
2023/08/26 03:38:42;;;;;;;13.02;4.53;;;19.40;99.90;;;;;;4944335;29;20038;-91
2023/08/26 03:41:08;;;;;;;13.65;3.45;;;19.40;99.90;;;;;;4941523;28;20047;-89
2023/08/26 03:43:33;;;;;;;9.80;2.85;;;19.20;99.90;;;;;;4950009;29;20050;-89
2023/08/26 03:45:59;;;;;;;7.88;2.13;;;19.10;99.90;;;;;;4939527;29;20059;-91
2023/08/26 03:48:25;;;;;;;7.30;1.90;;;19.00;99.90;;;;;;4949878;29;20027;-91
2023/08/26 03:50:57;;;;;;;2.85;1.40;;;18.90;99.90;;;;;;4952774;28;20089;-86
2023/08/26 03:53:22;;;;;;;5.53;2.33;;;18.70;99.90;;;;;;4950960;28;20039;-86
2023/08/26 03:55:48;;;;;;;4.50;1.70;;;18.70;99.90;;;;;;4948822;28;20565;-85
2023/08/26 03:58:14;;;;;;;6.35;1.83;;;18.60;99.90;;;;;;4943374;28;20031;-85
2023/08/26 04:00:40;;;;;;;16.35;3.15;;;18.60;99.90;;;;;;4946252;28;20070;-85
2023/08/26 04:03:08;;;;;;;8.93;3.42;;;18.60;99.90;;;;;;4945557;29;20073;-84
2023/08/26 04:05:34;;;;;;;17.95;2.58;;;18.60;99.90;;;;;;4943193;28;20031;-84
2023/08/26 04:08:00;;;;;;;7.43;2.88;;;18.50;99.90;;;;;;4943452;29;20491;-84
2023/08/26 04:10:26;;;;;;;7.95;2.33;;;18.50;99.90;;;;;;4950177;29;20098;-84
2023/08/26 04:12:51;;;;;;;3.40;1.90;;;18.50;99.90;;;;;;4943701;28;20027;-84
2023/08/26 04:15:20;;;;;;;9.27;1.70;;;18.50;99.90;;;;;;4942851;28;20489;-83
2023/08/26 04:17:45;;;;;;;2.33;1.50;;;18.50;99.90;;;;;;4949501;28;20042;-84
2023/08/26 04:20:11;;;;;;;6.70;1.30;;;18.50;99.90;;;;;;4949427;29;20098;-84
2023/08/26 04:22:37;;;;;;;2.45;1.52;;;18.40;99.90;;;;;;4944587;28;20043;-84
2023/08/26 04:25:05;;;;;;;13.27;2.55;;;18.50;99.90;;;;;;4944538;29;20036;-85
2023/08/26 04:27:34;;;;;;;8.65;1.45;;;18.40;99.90;;;;;;4942323;29;20032;-84
2023/08/26 04:30:00;;;;;;;7.68;1.90;;;18.40;99.90;;;;;;4946384;28;20522;-85
2023/08/26 04:32:26;;;;;;;4.43;1.30;;;18.40;99.90;;;;;;4940009;29;20028;-84
2023/08/26 04:34:52;;;;;;;8.80;1.23;;;18.40;99.90;;;;;;4946092;28;20082;-84
2023/08/26 04:37:20;;;;;;;6.97;1.48;;;18.40;99.90;;;;;;4944216;28;20118;-84
2023/08/26 04:39:46;;;;;;;6.10;1.10;;;18.40;99.90;;;;;;4938358;29;20047;-85
2023/08/26 04:42:12;;;;;;;7.00;1.02;;;18.50;99.90;;;;;;4942128;28;20047;-85
2023/08/26 04:44:38;;;;;;;0.70;0.70;;;18.40;99.90;;;;;;4945942;28;20040;-85
2023/08/26 04:47:03;;;;;;;2.40;1.13;;;18.40;99.90;;;;;;4945609;29;20034;-84
2023/08/26 04:49:31;;;;;;;3.38;1.52;;;18.40;99.90;;;;;;4948411;29;20058;-87
2023/08/26 04:51:56;;;;;;;4.30;1.25;;;18.40;99.90;;;;;;4946456;28;20057;-85
2023/08/26 04:54:22;;;;;;;2.33;1.10;;;18.40;99.90;;;;;;4942066;29;20067;-84
2023/08/26 04:56:48;;;;;;;5.38;1.10;;;18.30;99.90;;;;;;4940366;29;20121;-85
2023/08/26 04:59:13;;;;;;;2.50;1.10;;;18.40;99.90;;;;;;4947979;28;20031;-84
2023/08/26 05:01:39;;;;;;;5.25;1.20;;;18.40;99.90;;;;;;4945541;29;20083;-84
2023/08/26 05:04:05;;;;;;;2.45;1.25;;;18.40;99.90;;;;;;4947920;28;20385;-84
2023/08/26 05:06:30;;;;;;;3.25;1.35;;;18.30;99.90;;;;;;4943551;29;20031;-84
2023/08/26 05:08:56;;;;;;;1.73;1.50;;;18.30;99.90;;;;;;4947337;29;20035;-84
2023/08/26 05:11:22;;;;;;;2.95;1.48;;;18.40;99.90;;;;;;4947635;28;20576;-84
2023/08/26 05:13:47;;;;;;;6.90;1.48;;;18.40;99.90;;;;;;4942303;29;20027;-84
2023/08/26 05:16:13;;;;;;;2.20;1.70;;;18.40;99.90;;;;;;4947650;28;20031;-85
2023/08/26 05:18:38;;;;;;;1.73;1.63;;;18.40;99.90;;;;;;4940239;29;20040;-84
2023/08/26 05:21:06;;;;;;;4.82;2.83;;;18.40;99.90;;;;;;4941980;29;20035;-84
2023/08/26 05:23:34;;;;;;;2.65;2.35;;;18.40;99.90;;;;;;4944112;28;20275;-85
2023/08/26 05:26:03;;;;;;;4.60;2.28;;;18.40;99.90;;;;;;4938579;29;20031;-85
2023/08/26 05:28:31;;;;;;;3.92;2.40;;;18.50;99.90;;;;;;4935089;29;20035;-87
2023/08/26 05:30:57;;;;;;;3.15;2.28;;;18.40;99.90;;;;;;4934152;28;20039;-86
2023/08/26 05:33:23;;;;;;;5.88;2.35;;;18.50;99.90;;;;;;4940189;28;20401;-86
2023/08/26 05:35:52;;;;;;;1.90;1.80;;;18.50;99.90;;;;;;4942289;28;20027;-85
2023/08/26 05:38:17;;;;;;;4.28;1.95;;;18.40;99.90;;;;;;4943035;29;20027;-85
2023/08/26 05:40:43;;;;;;;4.53;2.58;;;18.50;99.90;;;;;;4939276;28;20102;-86
2023/08/26 05:43:08;;;;;;;13.00;6.35;;;18.50;99.90;;;;;;4943977;28;20027;-85
2023/08/26 05:45:37;;;;;;;6.57;5.13;;;18.50;99.90;;;;;;4944917;28;20075;-85
2023/08/26 05:48:06;;;;;;;11.32;6.25;;;18.50;99.90;;;;;;4941959;28;20027;-87
2023/08/26 05:50:36;;;;;;;7.15;5.35;;;18.50;99.90;;;;;;4939539;28;20607;-86
2023/08/26 05:53:05;;;;;;;6.03;5.43;;;18.50;99.90;;;;;;4943459;28;20032;-86
2023/08/26 05:55:33;;;;;;;8.77;6.30;;;18.50;99.90;;;;;;4934379;29;20020;-86
2023/08/26 05:57:59;;;;;;;7.50;5.80;;;18.50;99.90;;;;;;4938226;28;20211;-86
2023/08/26 06:00:29;;;;;;;8.50;6.82;;;18.60;99.90;;;;;;4946289;28;20378;-87
2023/08/26 06:02:56;;;;;;;12.13;7.50;;;18.60;99.90;;;;;;4947009;28;20573;-87
2023/08/26 06:05:25;;;;;;;8.45;6.38;;;18.60;99.90;;;;;;4941610;28;20066;-87
2023/08/26 06:07:53;;;;;;;10.68;7.78;;;18.60;99.90;;;;;;4926867;29;20047;-87
2023/08/26 06:10:19;;;;;;;9.82;6.88;;;18.60;99.90;;;;;;4943018;29;20170;-88
2023/08/26 06:12:45;;;;;;;22.15;9.05;;;18.60;99.90;;;;;;4945507;28;20122;-88
2023/08/26 06:15:11;;;;;;;13.02;8.07;;;18.70;99.90;;;;;;4947310;28;20039;-87
2023/08/26 06:17:41;;;;;;;9.90;7.20;;;18.70;99.90;;;;;;4940853;28;20027;-87
2023/08/26 06:20:10;;;;;;;28.45;17.23;;;18.70;99.90;;;;;;4942954;29;20062;-90
2023/08/26 06:22:36;;;;;;;33.28;17.88;;;18.70;99.90;;;;;;4942073;28;20043;-87
2023/08/26 06:25:01;;;;;;;35.60;19.20;;;18.80;99.90;;;;;;4947200;28;20054;-87
2023/08/26 06:27:27;;;;;;;32.63;19.90;;;18.80;99.90;;;;;;4937025;28;20473;-87
2023/08/26 06:29:54;;;;;;;36.15;20.80;;;18.80;99.90;;;;;;4937489;29;20122;-87
2023/08/26 06:32:20;;;;;;;34.72;20.17;;;18.80;99.90;;;;;;4944937;29;20114;-87
2023/08/26 06:34:46;;;;;;;36.05;20.60;;;18.80;99.90;;;;;;4948993;29;20043;-87
2023/08/26 06:37:12;;;;;;;38.47;18.33;;;18.80;99.90;;;;;;4948611;29;20030;-90
2023/08/26 06:39:38;;;;;;;27.23;17.40;;;18.80;99.90;;;;;;4947864;28;20047;-88
2023/08/26 06:42:03;;;;;;;24.60;16.92;;;18.70;99.90;;;;;;4937459;29;20048;-88
2023/08/26 06:44:29;;;;;;;30.02;19.25;;;18.80;99.90;;;;;;4946093;28;20408;-87
2023/08/26 06:46:54;;;;;;;29.80;19.40;;;18.70;99.90;;;;;;4950618;28;20098;-88
2023/08/26 06:49:20;;;;;;;30.10;19.30;;;18.70;99.90;;;;;;4947134;28;20119;-87
2023/08/26 06:51:46;;;;;;;28.48;19.98;;;18.80;99.90;;;;;;4940556;29;20552;-87
2023/08/26 06:54:11;;;;;;;33.00;19.30;;;18.70;99.90;;;;;;4941958;28;20124;-86
2023/08/26 06:56:37;;;;;;;26.98;18.10;;;18.70;99.90;;;;;;4935501;29;20034;-87
2023/08/26 06:59:03;;;;;;;30.85;19.20;;;18.70;99.90;;;;;;4947348;28;20102;-86
2023/08/26 07:01:29;;;;;;;31.00;17.88;;;18.80;99.90;;;;;;4946410;28;20044;-87
2023/08/26 07:04:08;;;;;;;32.80;18.05;;;18.80;99.90;;;;;;4929801;29;20074;-88
2023/08/26 07:06:35;;;;;;;27.90;16.45;;;18.70;99.90;;;;;;4924377;29;20413;-87
2023/08/26 07:09:03;;;;;;;28.98;17.30;;;18.70;99.90;;;;;;4946403;29;20031;-88
2023/08/26 07:11:29;;;;;;;31.48;18.65;;;18.70;99.90;;;;;;4944249;29;20039;-88
2023/08/26 07:13:54;;;;;;;33.80;17.50;;;18.70;99.90;;;;;;4942880;29;20553;-87
2023/08/26 07:16:20;;;;;;;34.00;17.58;;;18.80;99.90;;;;;;4940978;29;20034;-87
2023/08/26 07:18:45;;;;;;;28.95;16.45;;;18.80;99.90;;;;;;4942656;29;20031;-87
2023/08/26 07:21:11;;;;;;;29.88;15.48;;;18.90;99.90;;;;;;4947668;29;20035;-88
2023/08/26 07:23:38;;;;;;;34.15;16.73;;;19.00;99.90;;;;;;4940796;29;20031;-87
2023/08/26 07:26:03;;;;;;;26.83;14.88;;;19.00;99.90;;;;;;4949831;29;20039;-87
2023/08/26 07:28:29;;;;;;;19.58;13.40;;;19.10;99.90;;;;;;4943118;29;20042;-87
2023/08/26 07:31:02;;;;;;;21.98;13.10;;;19.10;99.90;;;;;;4946524;28;20111;-89
2023/08/26 07:33:28;;;;;;;24.95;13.18;;;19.10;99.90;;;;;;4945528;29;20024;-88
2023/08/26 07:36:02;;;;;;;24.98;12.18;;;19.20;99.90;;;;;;4941198;28;20034;-88
2023/08/26 07:38:28;;;;;;;20.50;12.45;;;19.10;99.90;;;;;;4933027;28;20036;-89
2023/08/26 07:40:53;;;;;;;22.65;11.85;;;19.20;99.90;;;;;;4943492;28;20061;-91
2023/08/26 07:43:19;;;;;;;23.40;12.77;;;19.20;99.90;;;;;;4945975;29;20031;-87
2023/08/26 07:45:44;;;;;;;26.45;12.27;;;19.30;99.90;;;;;;4945451;29;20038;-91
2023/08/26 07:48:10;;;;;;;25.95;10.88;;;19.30;99.90;;;;;;4941473;29;20377;-87
2023/08/26 07:50:36;;;;;;;22.48;10.80;;;19.30;99.90;;;;;;4945535;29;20115;-88
2023/08/26 07:53:01;;;;;;;15.88;9.10;;;19.40;99.90;;;;;;4942029;28;20427;-87
2023/08/26 07:55:27;;;;;;;19.48;10.57;;;19.40;99.90;;;;;;4948332;28;20366;-90
2023/08/26 07:57:52;;;;;;;16.92;8.73;;;19.50;99.90;;;;;;4942311;29;20034;-91
2023/08/26 08:00:18;;;;;;;18.58;9.00;;;19.60;99.90;;;;;;4944908;28;20755;-89
2023/08/26 08:02:44;;;;;;;15.75;7.88;;;19.60;99.90;;;;;;4951199;28;20039;-88
2023/08/26 08:05:09;;;;;;;18.17;7.45;;;19.70;99.90;;;;;;4953017;28;20027;-90
2023/08/26 08:07:35;;;;;;;18.42;7.35;;;19.80;99.90;;;;;;4952487;28;20031;-93
2023/08/26 08:10:00;;;;;;;13.63;6.28;;;19.70;99.90;;;;;;4947297;28;20023;-90
2023/08/26 08:12:26;;;;;;;21.05;7.50;;;19.80;99.90;;;;;;4924897;28;20030;-95
2023/08/26 08:14:51;;;;;;;16.23;8.25;;;19.70;99.90;;;;;;4941875;28;20027;-88
2023/08/26 08:17:18;;;;;;;11.25;6.72;;;19.90;99.90;;;;;;4941689;28;20027;-93
2023/08/26 08:19:45;;;;;;;10.23;5.22;;;19.90;99.90;;;;;;4944621;29;20066;-93
2023/08/26 08:22:12;;;;;;;12.73;6.05;;;19.90;99.90;;;;;;4947912;28;20130;-86
2023/08/26 08:24:38;;;;;;;14.93;6.63;;;19.90;99.90;;;;;;4951869;28;20034;-85
2023/08/26 08:27:04;;;;;;;12.63;5.93;;;20.00;99.90;;;;;;4950928;28;20027;-93
2023/08/26 08:29:29;;;;;;;8.32;5.38;;;20.10;99.90;;;;;;4940352;29;20086;-88
2023/08/26 08:31:55;;;;;;;14.25;5.75;;;20.20;99.90;;;;;;4941142;28;20031;-92
2023/08/26 08:34:21;;;;;;;17.98;5.22;;;20.20;99.90;;;;;;4953288;28;20063;-89
2023/08/26 08:36:49;;;;;;;7.35;4.28;;;20.20;99.90;;;;;;4945352;28;20579;-92
2023/08/26 08:39:15;;;;;;;16.08;4.32;;;20.20;99.90;;;;;;4940803;28;20034;-89
2023/08/26 08:41:41;;;;;;;7.15;4.28;;;20.20;99.90;;;;;;4947904;28;20047;-92
2023/08/26 08:44:13;;;;;;;13.10;4.65;;;20.20;99.90;;;;;;4945504;28;20027;-90
2023/08/26 08:46:39;;;;;;;9.57;3.80;;;20.30;99.90;;;;;;4933878;29;20475;-92
2023/08/26 08:49:06;;;;;;;12.75;3.83;;;20.30;99.90;;;;;;4947434;28;20192;-88
2023/08/26 08:51:34;;;;;;;7.95;3.50;;;20.30;99.90;;;;;;4946830;28;20317;-95
2023/08/26 08:54:02;;;;;;;8.35;3.58;;;20.30;99.90;;;;;;4946687;28;20042;-87
2023/08/26 08:56:30;;;;;;;10.32;3.90;;;20.20;99.90;;;;;;4947669;29;20040;-84
2023/08/26 08:58:57;;;;;;;5.93;3.78;;;20.00;99.90;;;;;;4946457;28;20031;-92
2023/08/26 09:01:25;;;;;;;9.77;4.18;;;19.90;99.90;;;;;;4948508;28;20401;-92
2023/08/26 09:03:51;;;;;;;10.15;4.45;;;19.80;99.90;;;;;;4950263;28;20035;-83
2023/08/26 09:06:19;;;;;;;8.27;4.68;;;19.80;99.90;;;;;;4947764;28;20046;-82
2023/08/26 09:08:45;;;;;;;8.07;4.13;;;19.70;99.90;;;;;;4941221;28;20102;-83
2023/08/26 09:11:12;;;;;;;4.65;3.63;;;19.70;99.90;;;;;;4951524;28;20421;-83
2023/08/26 09:13:38;;;;;;;7.75;4.35;;;19.70;99.90;;;;;;4940468;29;20673;-82
2023/08/26 09:16:04;;;;;;;14.98;3.75;;;19.70;99.90;;;;;;4942456;28;20110;-82
2023/08/26 09:18:30;;;;;;;11.55;3.90;;;19.80;99.90;;;;;;4943541;29;20042;-83
2023/08/26 09:20:55;;;;;;;6.85;3.53;;;19.80;99.90;;;;;;4937844;28;20048;-84
2023/08/26 09:23:21;;;;;;;4.18;3.03;;;19.80;99.90;;;;;;4937260;29;20426;-83
2023/08/26 09:25:55;;;;;;;10.40;2.90;;;19.90;99.90;;;;;;4948676;28;20397;-88
2023/08/26 09:28:23;;;;;;;7.75;3.03;;;19.90;99.90;;;;;;4929733;29;20377;-83
2023/08/26 09:31:03;;;;;;;6.05;2.70;;;20.00;99.90;;;;;;4946074;28;20035;-82
2023/08/26 09:33:28;;;;;;;5.22;2.53;;;20.00;99.90;;;;;;4941514;29;20039;-83
2023/08/26 09:35:54;;;;;;;5.13;2.20;;;20.00;99.90;;;;;;4929038;29;20027;-82
2023/08/26 09:38:21;;;;;;;6.53;2.78;;;20.00;99.90;;;;;;4929769;29;20042;-85
2023/08/26 09:40:47;;;;;;;10.43;2.90;;;20.00;99.90;;;;;;4941564;28;20399;-84
2023/08/26 09:43:13;;;;;;;7.30;2.28;;;20.00;99.90;;;;;;4939467;29;20434;-80
2023/08/26 09:45:38;;;;;;;6.35;2.40;;;19.90;99.90;;;;;;4938254;29;20078;-86
2023/08/26 09:48:07;;;;;;;6.22;2.17;;;19.80;99.90;;;;;;4945721;28;20031;-85
2023/08/26 09:50:33;;;;;;;3.72;2.10;;;19.70;99.90;;;;;;4938884;29;20028;-82
2023/08/26 09:52:59;;;;;;;8.65;2.50;;;19.70;99.90;;;;;;4937558;28;20027;-82
2023/08/26 09:55:25;;;;;;;9.02;2.65;;;19.70;99.90;;;;;;4941228;28;20034;-79
2023/08/26 09:57:54;;;;;;;3.33;2.03;;;19.80;99.90;;;;;;4943416;29;20105;-82
2023/08/26 10:00:20;;;;;;;5.85;2.33;;;19.80;99.90;;;;;;4946066;28;20126;-83
2023/08/26 10:02:50;;;;;;;9.38;2.58;;;19.80;99.90;;;;;;4947064;28;20036;-83
2023/08/26 10:05:24;;;;;;;7.53;2.97;;;19.90;99.90;;;;;;4945240;28;20126;-82
2023/08/26 10:07:51;;;;;;;4.68;2.58;;;19.90;99.90;;;;;;4934564;28;20082;-83
2023/08/26 10:10:27;;;;;;;6.22;2.33;;;19.90;99.90;;;;;;4944673;29;20481;-84
2023/08/26 10:12:59;;;;;;;4.50;2.10;;;20.00;99.90;;;;;;4945914;28;20424;-82
2023/08/26 10:15:28;;;;;;;5.93;2.50;;;20.10;99.90;;;;;;4938598;28;20034;-85
2023/08/26 10:17:59;;;;;;;4.38;2.10;;;20.20;99.90;;;;;;4948165;28;20030;-87
2023/08/26 10:20:25;;;;;;;4.70;2.08;;;20.20;99.90;;;;;;4940682;28;20036;-86
2023/08/26 10:22:51;;;;;;;2.97;1.75;;;20.20;99.90;;;;;;4937118;29;20484;-87
2023/08/26 10:25:20;;;;;;;1.92;1.38;;;20.20;99.90;;;;;;4942530;29;20027;-93
2023/08/26 10:27:46;;;;;;;6.65;1.80;;;20.20;99.90;;;;;;4936094;28;20623;-81
2023/08/26 10:30:12;;;;;;;4.50;1.70;;;20.10;99.90;;;;;;4941527;28;20050;-84
2023/08/26 10:32:44;;;;;;;6.70;1.85;;;20.10;99.90;;;;;;4947193;28;20054;-86
2023/08/26 10:35:12;;;;;;;3.22;1.70;;;20.10;99.90;;;;;;4918178;29;20110;-91
2023/08/26 10:37:40;;;;;;;6.63;1.60;;;20.00;99.90;;;;;;4944386;28;20030;-83
2023/08/26 10:40:12;;;;;;;2.42;1.65;;;20.10;99.90;;;;;;4939714;28;20332;-83
2023/08/26 10:43:06;;;;;;;2.95;1.52;;;20.10;99.90;;;;;;4937298;29;20494;-94
2023/08/26 10:45:32;;;;;;;5.50;2.25;;;20.20;99.90;;;;;;4940598;29;20545;-83
2023/08/26 10:48:00;;;;;;;3.92;1.85;;;20.20;99.90;;;;;;4928898;29;20039;-84
2023/08/26 10:50:27;;;;;;;5.75;1.63;;;20.10;99.90;;;;;;4940635;29;20031;-87
2023/08/26 10:52:56;;;;;;;2.80;1.42;;;20.10;99.90;;;;;;4935145;29;20031;-89
2023/08/26 10:55:32;;;;;;;4.00;1.45;;;20.10;99.90;;;;;;4932023;28;20032;-87
2023/08/26 10:58:06;;;;;;;5.28;1.55;;;20.10;99.90;;;;;;4942531;28;20035;-87
2023/08/26 11:00:32;;;;;;;5.70;1.60;;;20.10;99.90;;;;;;4939132;28;20122;-86
2023/08/26 11:03:01;;;;;;;2.95;1.70;;;20.10;99.90;;;;;;4941490;28;20130;-89
2023/08/26 11:05:44;;;;;;;;;;;;;;;;;;;;;
2023/08/26 11:08:10;;;;;;;3.92;1.48;;;20.30;99.90;;;;;;4937108;29;20039;-92
2023/08/26 11:10:41;;;;;;;4.68;1.60;;;20.20;99.90;;;;;;4943323;28;20433;-89
2023/08/26 11:13:11;;;;;;;1.83;1.23;;;20.20;99.90;;;;;;4939077;28;20065;-87
2023/08/26 11:15:42;;;;;;;3.47;1.50;;;20.30;99.90;;;;;;4949543;28;20370;-92
2023/08/26 11:18:10;;;;;;;4.85;1.52;;;20.40;99.90;;;;;;4942999;28;20501;-86
2023/08/26 11:20:36;;;;;;;2.75;1.60;;;20.40;99.90;;;;;;4944797;28;20130;-90
2023/08/26 11:23:06;;;;;;;4.25;1.50;;;20.50;99.90;;;;;;4950182;29;20108;-87
2023/08/26 11:25:36;;;;;;;3.53;1.02;;;20.40;99.90;;;;;;4947542;28;20114;-94
2023/08/26 11:28:10;;;;;;;8.93;2.00;;;20.50;99.90;;;;;;4946692;28;20398;-82
2023/08/26 11:30:48;;;;;;;2.17;1.55;;;20.50;99.90;;;;;;4943181;29;20078;-86
2023/08/26 11:33:16;;;;;;;5.78;2.22;;;20.60;99.90;;;;;;4945177;29;20031;-83
2023/08/26 11:35:45;;;;;;;5.07;1.50;;;20.60;99.90;;;;;;4943732;29;20114;-84
2023/08/26 11:38:12;;;;;;;5.22;1.85;;;20.60;99.90;;;;;;4930926;29;20031;-89
2023/08/26 11:40:38;;;;;;;5.65;1.60;;;20.50;99.90;;;;;;4953568;28;20063;-90
2023/08/26 11:43:14;;;;;;;7.90;1.80;;;20.50;99.90;;;;;;4942724;28;20038;-91
2023/08/26 11:45:48;;;;;;;2.97;1.52;;;20.40;99.90;;;;;;4949081;29;20247;-87
2023/08/26 11:48:14;;;;;;;5.05;1.70;;;20.60;99.90;;;;;;4943732;29;20039;-86
2023/08/26 11:50:41;;;;;;;3.83;1.85;;;20.60;99.90;;;;;;4945613;29;20469;-91
2023/08/26 11:53:06;;;;;;;5.15;1.50;;;20.70;99.90;;;;;;4943653;29;20039;-79
2023/08/26 11:55:33;;;;;;;3.72;1.30;;;20.60;99.90;;;;;;4941461;28;20023;-80
2023/08/26 11:58:03;;;;;;;4.75;1.60;;;20.60;99.90;;;;;;4944968;28;20065;-80
2023/08/26 12:00:29;;;;;;;2.60;1.55;;;20.60;99.90;;;;;;4941076;28;20138;-88
2023/08/26 12:03:02;;;;;;;4.55;1.95;;;20.60;99.90;;;;;;4947361;28;20083;-86
2023/08/26 12:05:45;;;;;;;2.88;1.45;;;20.40;99.90;;;;;;4942375;28;21766;-81
2023/08/26 12:08:16;;;;;;;3.78;1.70;;;20.30;99.90;;;;;;4916827;29;20023;-81
2023/08/26 12:10:46;;;;;;;1.83;1.40;;;20.40;99.90;;;;;;4941833;29;20055;-81
2023/08/26 12:13:13;;;;;;;2.95;1.38;;;20.50;99.90;;;;;;4943417;29;20028;-82
2023/08/26 12:15:41;;;;;;;2.65;1.38;;;20.50;99.90;;;;;;4940841;29;20019;-78
2023/08/26 12:18:07;;;;;;;5.07;1.70;;;20.60;99.90;;;;;;4947716;28;20035;-78
2023/08/26 12:20:33;;;;;;;5.53;2.33;;;20.60;99.90;;;;;;4948797;29;20043;-83
2023/08/26 12:23:01;;;;;;;3.00;1.30;;;20.60;99.90;;;;;;4945161;29;20086;-80
2023/08/26 12:25:35;;;;;;;2.38;1.58;;;20.60;99.90;;;;;;4950722;28;20030;-79
2023/08/26 12:28:24;;;;;;;3.47;1.50;;;20.60;99.90;;;;;;4943642;29;20024;-79
2023/08/26 12:30:50;;;;;;;2.13;1.42;;;20.60;99.90;;;;;;4945337;28;20114;-79
2023/08/26 12:33:16;;;;;;;5.10;1.63;;;20.60;99.90;;;;;;4946213;28;20489;-81
2023/08/26 12:35:44;;;;;;;2.05;1.60;;;20.60;99.90;;;;;;4949273;29;20020;-81
2023/08/26 12:38:10;;;;;;;6.60;1.58;;;20.60;99.90;;;;;;4943563;29;20513;-86
2023/08/26 12:40:37;;;;;;;3.40;1.52;;;20.60;99.90;;;;;;4947269;28;20047;-80
2023/08/26 12:43:04;;;;;;;3.72;1.52;;;20.70;99.90;;;;;;4946589;29;20031;-81